Time;durP1;ratioP1;P1;durP2;ratioP2;P2;SDS_P1;SDS_P2;PMS_P1;PMS_P2;Temp;Humidity;BMP_temperature;BMP_pressure;BME280_temperature;BME280_humidity;BME280_pressure;Samples;Min_cycle;Max_cycle;Signal;HPM_P1;HPM_P2
2023/01/04 00:01:40;;;;;;;10.98;4.78;;;8.10;99.90;;;;;;5120220;27;20042;-47
2023/01/04 00:04:05;;;;;;;11.93;5.05;;;8.10;99.90;;;;;;5117803;27;20582;-50
2023/01/04 00:06:31;;;;;;;10.07;5.03;;;8.10;99.90;;;;;;5129852;27;20051;-44
2023/01/04 00:08:57;;;;;;;11.77;4.93;;;8.10;99.90;;;;;;5117007;27;20047;-46
2023/01/04 00:11:23;;;;;;;11.55;5.18;;;8.00;99.90;;;;;;5102964;27;20050;-45
2023/01/04 00:13:54;;;;;;;12.00;5.82;;;8.00;99.90;;;;;;5126883;27;20502;-47
2023/01/04 00:16:22;;;;;;;12.93;5.72;;;8.00;99.90;;;;;;5101333;27;20050;-45
2023/01/04 00:18:49;;;;;;;14.95;5.60;;;7.90;99.90;;;;;;5136557;27;20124;-48
2023/01/04 00:21:18;;;;;;;10.40;5.03;;;7.90;99.90;;;;;;5137619;27;20273;-50
2023/01/04 00:23:47;;;;;;;13.63;5.50;;;7.90;99.90;;;;;;5137678;27;20050;-47
2023/01/04 00:26:18;;;;;;;7.85;5.80;;;7.90;99.90;;;;;;5123804;27;20043;-45
2023/01/04 00:28:45;;;;;;;9.98;5.32;;;7.90;99.90;;;;;;5136546;27;20983;-49
2023/01/04 00:31:12;;;;;;;13.00;6.18;;;8.00;99.90;;;;;;5123615;27;20049;-51
2023/01/04 00:33:38;;;;;;;14.38;5.72;;;8.00;99.90;;;;;;5124045;27;20141;-45
2023/01/04 00:36:10;;;;;;;11.27;5.35;;;8.00;99.90;;;;;;5130619;27;20493;-47
2023/01/04 00:38:37;;;;;;;14.43;5.53;;;8.00;99.90;;;;;;5129870;27;20053;-50
2023/01/04 00:41:03;;;;;;;11.15;5.13;;;8.00;99.90;;;;;;5124388;27;20038;-48
2023/01/04 00:43:29;;;;;;;10.65;4.93;;;8.00;99.90;;;;;;5089036;27;20085;-48
2023/01/04 00:45:55;;;;;;;7.85;5.28;;;8.00;99.90;;;;;;5124363;27;20114;-50
2023/01/04 00:48:21;;;;;;;10.48;5.55;;;8.10;99.90;;;;;;5120928;27;20087;-51
2023/01/04 00:50:49;;;;;;;11.32;5.07;;;8.00;99.90;;;;;;5105589;27;20080;-49
2023/01/04 00:53:16;;;;;;;13.55;5.82;;;8.00;99.90;;;;;;5137008;27;20065;-49
2023/01/04 00:55:42;;;;;;;13.63;5.43;;;8.00;99.90;;;;;;5135773;27;20047;-49
2023/01/04 00:58:08;;;;;;;14.77;6.95;;;8.00;99.90;;;;;;5121248;27;20054;-50
2023/01/04 01:00:34;;;;;;;11.63;5.25;;;8.00;99.90;;;;;;5105651;27;20057;-47
2023/01/04 01:03:00;;;;;;;10.82;6.22;;;8.00;99.90;;;;;;5117852;27;20080;-46
2023/01/04 01:05:26;;;;;;;11.73;5.40;;;8.10;99.90;;;;;;5118550;27;20133;-52
2023/01/04 01:07:52;;;;;;;10.95;6.07;;;8.00;99.90;;;;;;5134025;27;20053;-49
2023/01/04 01:10:18;;;;;;;11.57;6.20;;;8.00;99.90;;;;;;5125502;27;20050;-47
2023/01/04 01:12:43;;;;;;;8.45;4.95;;;7.90;99.90;;;;;;5136479;27;20042;-50
2023/01/04 01:15:10;;;;;;;10.88;6.20;;;7.90;99.90;;;;;;5116084;27;20051;-48
2023/01/04 01:17:36;;;;;;;9.88;6.03;;;8.00;99.90;;;;;;5110083;27;20529;-48
2023/01/04 01:20:03;;;;;;;12.68;5.68;;;7.90;99.90;;;;;;5122842;27;20042;-45
2023/01/04 01:22:30;;;;;;;8.85;5.45;;;8.10;99.90;;;;;;5136003;27;20415;-45
2023/01/04 01:24:55;;;;;;;9.63;5.88;;;8.00;99.90;;;;;;5116170;27;20047;-48
2023/01/04 01:27:21;;;;;;;11.95;6.75;;;8.10;99.90;;;;;;5115681;27;20053;-49
2023/01/04 01:29:47;;;;;;;10.68;6.10;;;7.90;99.90;;;;;;5128411;27;20039;-45
2023/01/04 01:32:13;;;;;;;11.95;6.35;;;7.90;99.90;;;;;;5130339;27;20042;-48
2023/01/04 01:34:38;;;;;;;9.60;6.00;;;8.00;99.90;;;;;;5135808;27;20034;-48
2023/01/04 01:37:04;;;;;;;9.45;6.18;;;8.00;99.90;;;;;;5121121;27;20066;-47
2023/01/04 01:39:30;;;;;;;9.18;5.53;;;8.10;99.90;;;;;;5114914;27;20412;-48
2023/01/04 01:41:58;;;;;;;7.43;5.28;;;8.10;99.90;;;;;;5129571;27;20050;-46
2023/01/04 01:44:42;;;;;;;7.18;5.20;;;8.10;99.90;;;;;;5134834;27;20125;-49
2023/01/04 01:47:15;;;;;;;10.07;5.07;;;8.20;99.90;;;;;;5121851;27;20062;-50
2023/01/04 01:49:41;;;;;;;9.48;5.95;;;8.20;99.90;;;;;;5124784;27;20310;-48
2023/01/04 01:52:14;;;;;;;6.78;5.10;;;7.90;99.90;;;;;;5129840;27;20043;-49
2023/01/04 01:54:41;;;;;;;;;;;8.10;99.90;;;;;;5129641;27;20082;-51
2023/01/04 01:57:10;;;;;;;7.70;4.50;;;8.00;99.90;;;;;;5121277;27;19923;-49
2023/01/04 01:59:39;;;;;;;8.23;4.80;;;8.00;99.90;;;;;;5104028;27;20062;-51
2023/01/04 02:02:05;;;;;;;8.40;4.25;;;8.20;99.90;;;;;;5134957;27;20115;-48
2023/01/04 02:04:31;;;;;;;7.43;4.13;;;8.10;99.90;;;;;;5133411;27;20058;-51
2023/01/04 02:06:58;;;;;;;5.63;3.95;;;8.10;99.90;;;;;;5121234;27;20126;-47
2023/01/04 02:09:24;;;;;;;6.40;4.32;;;8.10;99.90;;;;;;5132977;27;20043;-47
2023/01/04 02:11:50;;;;;;;5.72;4.20;;;8.00;99.90;;;;;;5122070;27;20042;-49
2023/01/04 02:14:27;;;;;;;5.20;3.85;;;8.10;99.90;;;;;;5121505;27;20074;-47
2023/01/04 02:16:55;;;;;;;5.88;4.07;;;8.10;99.90;;;;;;5114586;27;20108;-49
2023/01/04 02:19:55;;;;;;;5.07;3.70;;;8.30;99.90;;;;;;5127459;27;20053;-50
2023/01/04 02:22:47;;;;;;;7.07;4.10;;;8.20;99.90;;;;;;5127563;27;20423;-49
2023/01/04 02:25:48;;;;;;;5.65;3.70;;;8.30;99.90;;;;;;5115430;27;20158;-47
2023/01/04 02:28:14;;;;;;;4.38;3.38;;;8.40;99.90;;;;;;5121215;27;20197;-46
2023/01/04 02:31:17;;;;;;;7.40;4.10;;;8.20;99.90;;;;;;5116140;27;20042;-49
2023/01/04 02:34:08;;;;;;;4.87;3.60;;;8.40;99.90;;;;;;5096946;28;20055;-45
2023/01/04 02:37:04;;;;;;;4.32;3.50;;;8.20;99.90;;;;;;5123759;27;20050;-49
2023/01/04 02:39:55;;;;;;;5.68;4.40;;;8.40;99.90;;;;;;5114999;27;20054;-47
2023/01/04 02:45:29;;;;;;;6.70;4.40;;;8.20;99.90;;;;;;5132331;27;20119;-47
2023/01/04 02:50:54;;;;;;;7.88;4.88;;;8.50;99.90;;;;;;5121013;27;20055;-46
2023/01/04 02:53:22;;;;;;;6.00;4.97;;;8.50;99.90;;;;;;5104234;27;20569;-49
2023/01/04 02:56:14;;;;;;;5.28;4.78;;;8.30;99.90;;;;;;5117149;27;20054;-45
2023/01/04 02:59:02;;;;;;;7.78;4.55;;;8.50;99.90;;;;;;5131047;27;20099;-48
2023/01/04 03:07:24;;;;;;;5.18;4.07;;;8.50;99.90;;;;;;5105762;27;20051;-47
2023/01/04 03:09:55;;;;;;;5.38;4.30;;;8.70;99.90;;;;;;5125482;27;20149;-49
2023/01/04 03:12:32;;;;;;;4.85;4.35;;;8.80;99.90;;;;;;5118847;27;20051;-45
2023/01/04 03:15:06;;;;;;;6.88;4.57;;;8.70;99.90;;;;;;5118465;27;20043;-48
2023/01/04 03:17:43;;;;;;;5.40;4.43;;;8.60;99.90;;;;;;5130346;27;20465;-45
2023/01/04 03:20:11;;;;;;;5.55;4.57;;;8.80;99.90;;;;;;5130819;27;20051;-46
2023/01/04 03:36:55;;;;;;;8.13;7.13;;;9.00;99.90;;;;;;5126691;27;20054;-49
2023/01/04 03:48:30;;;;;;;7.32;6.60;;;9.60;99.90;;;;;;5128369;27;20420;-49
2023/01/04 03:51:21;;;;;;;12.00;7.70;;;9.60;99.90;;;;;;5130266;27;20047;-45
2023/01/04 03:53:57;;;;;;;7.57;6.65;;;9.30;99.90;;;;;;5110533;27;20061;-48
2023/01/04 03:56:24;;;;;;;6.45;5.88;;;9.40;99.90;;;;;;5116832;27;20062;-48
2023/01/04 03:58:51;;;;;;;6.72;6.13;;;9.40;99.90;;;;;;5130712;27;20050;-47
2023/01/04 04:01:19;;;;;;;10.40;6.78;;;9.50;99.90;;;;;;5131991;27;20047;-47
2023/01/04 04:09:13;;;;;;;9.57;8.05;;;9.80;99.90;;;;;;5130084;27;20165;-50
2023/01/04 04:11:39;;;;;;;11.00;8.52;;;9.60;99.90;;;;;;5117302;27;20054;-45
2023/01/04 04:14:05;;;;;;;11.43;9.30;;;9.80;99.90;;;;;;5125685;27;20139;-50
2023/01/04 04:16:30;;;;;;;10.02;8.95;;;9.70;99.90;;;;;;5116707;27;20450;-47
2023/01/04 04:18:56;;;;;;;11.40;9.65;;;9.90;99.90;;;;;;5127739;27;20504;-47
2023/01/04 04:21:22;;;;;;;10.10;9.10;;;9.80;99.90;;;;;;5123010;27;20042;-49
2023/01/04 04:23:48;;;;;;;9.60;8.65;;;10.00;99.90;;;;;;5106811;27;20477;-45
2023/01/04 04:26:14;;;;;;;10.77;9.68;;;10.00;99.90;;;;;;5103081;27;20635;-48
2023/01/04 04:28:40;;;;;;;10.98;9.57;;;9.80;99.90;;;;;;5125482;27;20070;-46
2023/01/04 04:31:05;;;;;;;11.40;10.13;;;9.90;99.90;;;;;;5111622;27;20043;-48
2023/01/04 04:33:31;;;;;;;11.48;10.18;;;9.90;99.90;;;;;;5116927;27;20464;-46
2023/01/04 04:35:57;;;;;;;11.30;10.20;;;9.90;99.90;;;;;;5129881;27;20047;-49
2023/01/04 04:38:22;;;;;;;10.77;9.68;;;9.90;99.90;;;;;;5127992;27;20051;-46
2023/01/04 04:43:33;;;;;;;11.07;9.98;;;9.90;99.90;;;;;;5136269;27;20113;-45
2023/01/04 04:45:59;;;;;;;10.95;9.88;;;10.10;99.90;;;;;;5136340;27;20043;-47
2023/01/04 04:48:25;;;;;;;10.40;9.18;;;10.20;99.90;;;;;;5136239;27;20111;-48
2023/01/04 04:50:51;;;;;;;8.85;8.05;;;10.20;99.90;;;;;;5110909;27;20086;-48
2023/01/04 04:53:16;;;;;;;10.05;9.15;;;10.00;99.90;;;;;;5130784;27;20064;-46
2023/01/04 04:55:42;;;;;;;10.80;8.27;;;10.10;99.90;;;;;;5136827;27;20481;-46
2023/01/04 04:58:08;;;;;;;11.88;10.68;;;10.10;99.90;;;;;;5121166;27;20043;-45
2023/01/04 05:00:33;;;;;;;10.30;9.23;;;10.10;99.90;;;;;;5128506;27;20647;-49
2023/01/04 05:03:00;;;;;;;11.13;9.15;;;10.00;99.90;;;;;;5097709;27;20397;-50
2023/01/04 05:05:27;;;;;;;11.73;9.70;;;9.90;99.90;;;;;;5122660;27;20046;-46
2023/01/04 05:07:53;;;;;;;10.15;9.05;;;10.20;99.90;;;;;;5120083;27;20047;-46
2023/01/04 05:10:18;;;;;;;10.10;8.95;;;10.10;99.90;;;;;;5115833;27;20086;-46
2023/01/04 05:12:59;;;;;;;14.05;10.23;;;10.20;99.90;;;;;;5129802;27;20501;-49
2023/01/04 05:15:34;;;;;;;12.15;9.00;;;9.90;99.90;;;;;;5097805;27;20534;-50
2023/01/04 05:17:59;;;;;;;13.82;9.77;;;10.00;99.90;;;;;;5082391;27;20078;-47
2023/01/04 05:20:25;;;;;;;12.40;8.63;;;10.10;99.90;;;;;;5136264;27;20565;-48
2023/01/04 05:22:51;;;;;;;12.88;8.15;;;10.20;99.90;;;;;;5136293;27;20131;-45
2023/01/04 05:25:17;;;;;;;9.13;7.57;;;10.00;99.90;;;;;;5125897;27;20130;-46
2023/01/04 05:27:44;;;;;;;8.57;7.05;;;10.10;99.90;;;;;;5131655;27;20480;-46
2023/01/04 05:32:59;;;;;;;9.38;7.60;;;10.20;99.90;;;;;;5128796;27;20142;-46
2023/01/04 05:35:26;;;;;;;8.88;7.80;;;10.20;99.90;;;;;;5128975;27;20050;-48
2023/01/04 05:37:51;;;;;;;8.55;7.65;;;10.10;99.90;;;;;;5102707;27;20042;-46
2023/01/04 05:40:17;;;;;;;11.45;7.80;;;10.20;99.90;;;;;;5135277;27;20046;-49
2023/01/04 05:42:43;;;;;;;9.48;7.68;;;10.00;99.90;;;;;;5121136;27;20048;-49
2023/01/04 05:45:09;;;;;;;10.80;7.68;;;10.20;99.90;;;;;;5135144;27;20047;-49
2023/01/04 05:47:35;;;;;;;10.23;8.23;;;10.20;99.90;;;;;;5134878;27;20335;-47
2023/01/04 05:50:01;;;;;;;13.60;8.07;;;10.00;99.90;;;;;;5122541;27;20035;-48
2023/01/04 05:52:27;;;;;;;10.50;7.93;;;10.00;99.90;;;;;;5129076;27;20051;-48
2023/01/04 05:54:53;;;;;;;14.85;7.95;;;10.00;99.90;;;;;;5128512;27;20499;-47
2023/01/04 05:57:18;;;;;;;12.35;7.93;;;10.10;99.90;;;;;;5121584;27;20464;-48
2023/01/04 05:59:44;;;;;;;16.67;9.07;;;10.00;99.90;;;;;;5135807;27;20444;-50
2023/01/04 06:02:17;;;;;;;12.68;8.20;;;10.30;99.90;;;;;;5129394;27;20206;-49
2023/01/04 06:04:43;;;;;;;13.15;8.98;;;10.00;99.90;;;;;;5129995;27;20042;-46
2023/01/04 06:07:09;;;;;;;10.35;9.23;;;10.20;99.90;;;;;;5116392;27;20050;-47
2023/01/04 06:09:35;;;;;;;17.58;10.25;;;10.30;99.90;;;;;;5134964;27;20107;-50
2023/01/04 06:12:01;;;;;;;15.90;8.75;;;10.00;99.90;;;;;;5127113;27;20403;-49
2023/01/04 06:14:26;;;;;;;18.05;9.13;;;10.00;99.90;;;;;;5115118;27;20045;-48
2023/01/04 06:16:52;;;;;;;18.13;9.45;;;10.20;99.90;;;;;;5134200;27;20997;-48
2023/01/04 06:19:17;;;;;;;19.17;9.35;;;10.10;99.90;;;;;;5134638;27;20042;-50
2023/01/04 06:21:43;;;;;;;15.50;8.57;;;10.10;99.90;;;;;;5122252;27;20039;-47
2023/01/04 06:24:12;;;;;;;18.80;9.98;;;10.10;99.90;;;;;;5134910;27;20034;-48
2023/01/04 06:26:38;;;;;;;14.02;8.93;;;10.10;99.90;;;;;;5134624;27;20045;-51
2023/01/04 06:29:04;;;;;;;14.90;8.85;;;10.10;99.90;;;;;;5133229;27;20050;-47
2023/01/04 06:31:29;;;;;;;15.75;8.40;;;10.30;99.90;;;;;;5108229;27;20325;-51
2023/01/04 06:33:55;;;;;;;14.20;8.48;;;10.20;99.90;;;;;;5139527;27;20050;-51
2023/01/04 06:36:21;;;;;;;14.57;8.77;;;10.10;99.90;;;;;;5139261;27;20035;-48
2023/01/04 06:38:48;;;;;;;14.48;10.35;;;10.00;99.90;;;;;;5125248;27;20112;-47
2023/01/04 06:41:14;;;;;;;15.27;8.93;;;10.30;99.90;;;;;;5131476;27;20498;-48
2023/01/04 06:43:40;;;;;;;20.35;9.68;;;10.20;99.90;;;;;;5084254;27;20299;-49
2023/01/04 06:46:05;;;;;;;14.10;8.50;;;10.30;99.90;;;;;;5127210;27;20485;-51
2023/01/04 06:48:31;;;;;;;14.23;8.73;;;10.10;99.90;;;;;;5138944;27;20428;-48
2023/01/04 06:50:57;;;;;;;10.95;8.57;;;10.30;99.90;;;;;;5130408;27;20122;-47
2023/01/04 06:53:22;;;;;;;12.27;8.60;;;10.20;99.90;;;;;;5112958;27;21322;-50
2023/01/04 06:55:48;;;;;;;14.60;8.00;;;10.40;99.90;;;;;;5135807;27;20142;-49
2023/01/04 06:58:14;;;;;;;13.40;7.30;;;10.20;99.90;;;;;;5138182;27;20154;-48
2023/01/04 07:00:40;;;;;;;9.85;7.43;;;10.40;99.90;;;;;;5138873;27;20034;-49
2023/01/04 07:03:06;;;;;;;14.90;7.38;;;10.30;99.90;;;;;;5136526;27;20131;-47
2023/01/04 07:05:31;;;;;;;12.63;6.65;;;10.20;99.90;;;;;;5117242;27;20050;-48
2023/01/04 07:08:01;;;;;;;15.60;8.70;;;10.40;99.90;;;;;;5121822;27;20100;-48
2023/01/04 07:10:27;;;;;;;13.65;6.90;;;10.20;99.90;;;;;;5108899;27;20070;-49
2023/01/04 07:12:53;;;;;;;8.95;6.63;;;10.20;99.90;;;;;;5122615;27;20062;-48
2023/01/04 07:15:19;;;;;;;10.25;5.72;;;10.40;99.90;;;;;;5117823;27;20035;-50
2023/01/04 07:17:48;;;;;;;11.07;7.15;;;10.40;99.90;;;;;;5094516;27;20637;-51
2023/01/04 07:20:14;;;;;;;17.00;7.00;;;10.40;99.90;;;;;;5127416;27;20103;-50
2023/01/04 07:22:40;;;;;;;12.00;6.80;;;10.30;99.90;;;;;;5106176;27;20312;-51
2023/01/04 07:25:06;;;;;;;11.85;6.63;;;10.40;99.90;;;;;;5129477;27;20057;-47
2023/01/04 07:27:31;;;;;;;16.05;7.03;;;10.20;99.90;;;;;;5129909;27;20610;-48
2023/01/04 07:29:57;;;;;;;16.30;7.20;;;10.40;99.90;;;;;;5118062;27;20114;-47
2023/01/04 07:32:23;;;;;;;14.15;6.50;;;10.20;99.90;;;;;;5131627;27;20109;-48
2023/01/04 07:34:48;;;;;;;15.32;6.38;;;10.40;99.90;;;;;;5108390;27;20173;-49
2023/01/04 07:37:14;;;;;;;11.68;5.97;;;10.20;99.90;;;;;;5123849;27;20110;-49
2023/01/04 07:39:41;;;;;;;16.13;6.80;;;10.10;99.90;;;;;;5111287;27;20043;-47
2023/01/04 07:42:07;;;;;;;16.20;7.00;;;10.40;99.90;;;;;;5126385;27;20072;-49
2023/01/04 07:44:32;;;;;;;14.50;6.97;;;10.10;99.90;;;;;;5108880;27;20066;-50
2023/01/04 07:46:58;;;;;;;20.45;6.95;;;10.30;99.90;;;;;;5100864;27;20393;-49
2023/01/04 07:49:24;;;;;;;15.43;6.50;;;10.30;99.90;;;;;;5117148;27;20881;-50
2023/01/04 07:51:50;;;;;;;13.55;6.40;;;10.30;99.90;;;;;;5133428;27;20046;-51
2023/01/04 07:54:16;;;;;;;14.02;6.57;;;10.10;99.90;;;;;;5138226;27;20073;-50
2023/01/04 07:56:43;;;;;;;13.63;6.40;;;10.30;99.90;;;;;;5133571;27;20125;-49
2023/01/04 07:59:11;;;;;;;13.18;7.07;;;10.30;99.90;;;;;;5109597;27;20460;-47
2023/01/04 08:01:37;;;;;;;20.60;7.32;;;10.10;99.90;;;;;;5124096;27;20050;-47
2023/01/04 08:04:07;;;;;;;13.90;6.35;;;10.10;99.90;;;;;;5128391;27;20057;-48
2023/01/04 08:06:33;;;;;;;16.38;6.75;;;10.20;99.90;;;;;;5133401;27;20078;-49
2023/01/04 08:08:59;;;;;;;19.75;7.75;;;10.20;99.90;;;;;;5118831;27;20493;-47
2023/01/04 08:11:25;;;;;;;17.23;6.85;;;10.40;99.90;;;;;;5134182;27;20047;-50
2023/01/04 08:13:51;;;;;;;20.08;7.07;;;10.20;99.90;;;;;;5118135;27;20043;-49
2023/01/04 08:16:30;;;;;;;16.67;6.00;;;10.30;99.90;;;;;;5113936;27;20046;-51
2023/01/04 08:18:58;;;;;;;19.20;5.88;;;10.40;99.90;;;;;;5106539;27;20470;-53
2023/01/04 08:21:24;;;;;;;15.52;5.40;;;10.20;99.90;;;;;;5129616;27;20184;-49
2023/01/04 08:23:51;;;;;;;19.38;5.78;;;10.30;99.90;;;;;;5128798;27;20442;-53
2023/01/04 08:26:17;;;;;;;11.70;5.50;;;10.40;99.90;;;;;;5118017;27;20793;-53
2023/01/04 08:28:44;;;;;;;14.35;4.60;;;10.40;99.90;;;;;;5115892;27;20047;-51
2023/01/04 08:31:12;;;;;;;18.92;4.82;;;10.20;99.90;;;;;;5125160;27;20035;-54
2023/01/04 08:33:39;;;;;;;13.27;4.30;;;10.40;99.90;;;;;;5129845;27;20189;-53
2023/01/04 08:36:12;;;;;;;14.90;4.13;;;10.30;99.90;;;;;;5122016;27;20515;-52
2023/01/04 08:38:38;;;;;;;10.85;3.97;;;10.20;99.90;;;;;;5137279;27;20047;-53
2023/01/04 08:41:05;;;;;;;12.68;4.30;;;10.20;99.90;;;;;;5130555;27;20443;-54
2023/01/04 08:43:30;;;;;;;9.07;3.92;;;10.20;99.90;;;;;;5117304;27;20047;-55
2023/01/04 08:45:56;;;;;;;9.25;4.13;;;10.30;99.90;;;;;;5104484;27;20159;-54
2023/01/04 08:48:22;;;;;;;16.25;4.35;;;10.40;99.90;;;;;;5136523;27;20074;-55
2023/01/04 08:50:47;;;;;;;9.82;4.63;;;10.40;99.90;;;;;;5130252;27;20050;-54
2023/01/04 08:53:13;;;;;;;12.95;4.53;;;10.50;99.90;;;;;;5112036;27;20057;-51
2023/01/04 08:55:38;;;;;;;12.23;4.68;;;10.50;99.90;;;;;;5122752;27;20043;-53
2023/01/04 08:58:06;;;;;;;12.52;4.45;;;10.20;99.90;;;;;;5122141;27;20799;-52
2023/01/04 09:00:32;;;;;;;10.73;4.22;;;10.50;99.90;;;;;;5116699;27;20111;-53
2023/01/04 09:02:57;;;;;;;14.00;4.32;;;10.30;99.90;;;;;;5130007;27;20187;-54
2023/01/04 09:05:24;;;;;;;11.15;3.95;;;10.50;99.90;;;;;;5136888;27;20054;-55
2023/01/04 09:07:50;;;;;;;13.88;4.50;;;10.30;99.90;;;;;;5121514;27;20126;-53
2023/01/04 09:10:16;;;;;;;11.55;3.85;;;10.30;99.90;;;;;;5112066;27;20039;-51
2023/01/04 09:12:44;;;;;;;10.65;4.03;;;10.40;99.90;;;;;;5115383;27;20049;-54
2023/01/04 09:15:10;;;;;;;8.50;3.40;;;10.40;99.90;;;;;;5114218;27;20051;-50
2023/01/04 09:17:35;;;;;;;12.85;4.45;;;10.40;99.90;;;;;;5128217;27;20066;-53
2023/01/04 09:20:01;;;;;;;10.70;3.85;;;10.50;99.90;;;;;;5101863;27;20527;-54
2023/01/04 09:22:27;;;;;;;9.13;3.45;;;10.30;99.90;;;;;;5125048;27;20062;-56
2023/01/04 09:24:53;;;;;;;8.32;3.65;;;10.30;99.90;;;;;;5127710;27;20489;-53
2023/01/04 09:27:18;;;;;;;10.02;3.85;;;10.50;99.90;;;;;;5123054;27;20039;-53
2023/01/04 09:29:44;;;;;;;10.27;3.45;;;10.40;99.90;;;;;;5111842;27;20055;-53
2023/01/04 09:32:09;;;;;;;11.68;4.00;;;10.40;99.90;;;;;;5113945;27;20637;-52
2023/01/04 09:34:35;;;;;;;10.10;3.35;;;10.30;99.90;;;;;;5133568;27;20195;-54
2023/01/04 09:37:01;;;;;;;13.43;4.38;;;10.30;99.90;;;;;;5132487;27;20490;-54
2023/01/04 09:39:29;;;;;;;12.02;3.65;;;10.30;99.90;;;;;;5126906;27;20045;-54
2023/01/04 09:41:57;;;;;;;14.88;4.18;;;10.30;99.90;;;;;;5109175;27;20987;-55
2023/01/04 09:44:46;;;;;;;13.32;4.43;;;10.40;99.90;;;;;;5121322;27;20043;-55
2023/01/04 09:47:49;;;;;;;16.90;3.67;;;10.50;99.90;;;;;;5113896;27;20489;-52
2023/01/04 09:50:18;;;;;;;11.80;4.18;;;10.40;99.90;;;;;;4993840;28;20360;-54
2023/01/04 09:52:49;;;;;;;17.13;3.65;;;10.30;99.90;;;;;;5009694;28;20160;-53
2023/01/04 09:55:26;;;;;;;15.10;4.90;;;10.50;99.90;;;;;;5009849;28;20085;-53
2023/01/04 09:57:58;;;;;;;14.88;4.20;;;10.60;99.90;;;;;;5002697;28;20049;-53
2023/01/04 10:00:33;;;;;;;18.92;4.72;;;10.60;99.90;;;;;;5023557;28;20059;-52
2023/01/04 10:03:31;;;;;;;17.80;4.20;;;10.50;99.90;;;;;;5017554;28;20116;-55
2023/01/04 10:05:57;;;;;;;24.88;4.38;;;10.50;99.90;;;;;;4963696;28;20058;-53
2023/01/04 10:08:23;;;;;;;23.50;5.15;;;10.80;99.90;;;;;;4971934;28;20425;-54
2023/01/04 10:11:10;;;;;;;22.75;4.90;;;10.60;99.90;;;;;;4972659;28;20058;-54
2023/01/04 10:13:57;;;;;;;25.98;6.50;;;10.90;99.90;;;;;;4960768;28;20566;-55
2023/01/04 10:16:57;;;;;;;31.30;6.22;;;10.60;99.90;;;;;;4969057;28;20063;-56
2023/01/04 10:19:49;;;;;;;33.97;7.55;;;11.00;99.90;;;;;;4953008;28;20065;-52
2023/01/04 10:22:25;;;;;;;40.40;7.07;;;10.90;99.90;;;;;;4967644;28;20768;-53
2023/01/04 10:25:11;;;;;;;44.03;7.97;;;11.00;99.90;;;;;;4957564;28;20053;-56
2023/01/04 10:27:56;;;;;;;43.88;7.60;;;11.10;99.90;;;;;;5029121;28;20356;-54
2023/01/04 10:30:53;;;;;;;40.75;8.93;;;11.10;99.90;;;;;;5054080;28;20071;-54
2023/01/04 10:33:38;;;;;;;35.92;7.55;;;11.00;99.90;;;;;;5020009;28;20080;-54
2023/01/04 10:36:20;;;;;;;42.53;8.75;;;11.10;99.90;;;;;;5048851;28;20678;-54
2023/01/04 10:38:53;;;;;;;49.20;9.63;;;11.10;99.90;;;;;;5050286;28;20222;-55
2023/01/04 10:41:23;;;;;;;54.35;10.40;;;10.90;99.90;;;;;;5036483;28;20479;-54
2023/01/04 10:44:01;;;;;;;50.80;9.25;;;10.80;99.90;;;;;;5114435;27;20069;-54
2023/01/04 10:46:42;;;;;;;50.40;11.40;;;10.90;99.90;;;;;;5128577;27;20050;-53
2023/01/04 10:49:16;;;;;;;46.45;9.02;;;10.90;99.90;;;;;;5127954;27;20042;-55
2023/01/04 10:51:57;;;;;;;47.58;9.23;;;10.90;99.90;;;;;;5127502;27;20047;-53
2023/01/04 10:54:43;;;;;;;49.75;9.40;;;11.00;99.90;;;;;;5141544;27;20087;-51
2023/01/04 10:57:33;;;;;;;53.10;9.05;;;11.10;99.90;;;;;;5140017;27;20053;-53
2023/01/04 11:00:16;;;;;;;47.05;9.07;;;10.90;99.90;;;;;;5127018;27;20104;-54
2023/01/04 11:03:02;;;;;;;;;;;11.20;99.90;;;;;;5141074;27;20050;-53
2023/01/04 11:05:47;;;;;;;49.30;9.05;;;10.90;99.90;;;;;;5121647;27;19923;-53
2023/01/04 11:08:18;;;;;;;41.92;8.60;;;11.10;99.90;;;;;;5137699;27;20332;-54
2023/01/04 11:10:50;;;;;;;52.90;9.23;;;10.90;99.90;;;;;;5121685;27;20059;-53
2023/01/04 11:13:16;;;;;;;39.35;8.50;;;11.20;99.90;;;;;;5115145;27;20449;-54
2023/01/04 11:15:44;;;;;;;38.85;8.52;;;10.90;99.90;;;;;;5131128;27;20043;-53
2023/01/04 11:18:12;;;;;;;38.13;8.73;;;11.20;99.90;;;;;;5137043;27;20066;-53
2023/01/04 11:20:39;;;;;;;41.22;7.30;;;11.00;99.90;;;;;;5125553;27;20039;-50
2023/01/04 11:23:04;;;;;;;47.88;7.78;;;11.00;99.90;;;;;;5136425;27;20432;-54
2023/01/04 11:25:37;;;;;;;32.72;7.45;;;11.20;99.90;;;;;;5137649;27;20050;-54
2023/01/04 11:29:01;;;;;;;38.83;8.27;;;11.20;99.90;;;;;;5131152;27;20325;-48
2023/01/04 11:31:42;;;;;;;42.65;7.57;;;11.20;99.90;;;;;;5059554;28;20649;-55
2023/01/04 11:34:08;;;;;;;38.47;6.72;;;11.20;99.90;;;;;;5073585;28;20124;-53
2023/01/04 11:36:38;;;;;;;35.83;7.32;;;11.20;99.90;;;;;;5072325;28;21034;-54
2023/01/04 11:39:19;;;;;;;35.85;7.13;;;11.00;99.90;;;;;;5055418;28;20071;-53
2023/01/04 11:41:58;;;;;;;40.78;7.28;;;11.20;99.90;;;;;;5056638;28;20542;-54
2023/01/04 11:44:25;;;;;;;32.92;7.00;;;11.10;99.90;;;;;;5072310;28;20216;-51
2023/01/04 11:47:20;;;;;;;36.58;7.10;;;11.30;99.90;;;;;;5070702;28;20066;-52
2023/01/04 11:49:46;;;;;;;34.38;7.10;;;11.30;99.90;;;;;;5071843;28;20407;-53
2023/01/04 11:52:33;;;;;;;32.08;6.13;;;11.10;99.90;;;;;;5072978;28;20119;-52
2023/01/04 11:55:22;;;;;;;28.77;6.75;;;11.30;99.90;;;;;;5067867;28;20040;-52
2023/01/04 11:58:05;;;;;;;31.27;6.28;;;11.10;99.90;;;;;;5057695;28;20144;-55
2023/01/04 12:00:31;;;;;;;35.38;6.75;;;11.00;99.90;;;;;;5056463;28;20064;-51
2023/01/04 12:03:14;;;;;;;30.02;6.13;;;11.10;99.90;;;;;;5070727;28;20084;-53
2023/01/04 12:05:40;;;;;;;20.23;5.35;;;11.20;99.90;;;;;;5076696;27;20099;-53
2023/01/04 12:08:12;;;;;;;26.27;6.45;;;11.00;99.90;;;;;;5130682;27;20039;-54
2023/01/04 12:10:37;;;;;;;26.83;5.10;;;11.20;99.90;;;;;;5127262;27;20055;-51
2023/01/04 12:13:08;;;;;;;20.80;4.55;;;11.20;99.90;;;;;;5101921;27;20054;-52
2023/01/04 12:15:43;;;;;;;15.35;4.03;;;11.00;99.90;;;;;;5126239;27;20057;-54
2023/01/04 12:18:25;;;;;;;20.77;4.05;;;11.20;99.90;;;;;;5136473;27;20523;-53
2023/01/04 12:20:51;;;;;;;11.00;2.88;;;11.00;99.90;;;;;;5136821;27;20035;-52
2023/01/04 12:23:17;;;;;;;12.02;3.20;;;11.00;99.90;;;;;;5116462;27;20078;-52
2023/01/04 12:25:45;;;;;;;19.52;3.88;;;11.20;99.90;;;;;;5130130;27;20185;-51
2023/01/04 12:28:48;;;;;;;12.20;3.47;;;11.00;99.90;;;;;;5122199;27;20153;-53
2023/01/04 12:31:19;;;;;;;10.98;3.10;;;11.00;99.90;;;;;;5029293;28;20056;-53
2023/01/04 12:33:45;;;;;;;12.50;2.65;;;11.00;99.90;;;;;;5023072;28;20160;-52
2023/01/04 12:36:14;;;;;;;17.45;3.00;;;10.90;99.90;;;;;;5014572;28;20110;-52
2023/01/04 12:39:30;;;;;;;11.93;2.90;;;11.00;99.90;;;;;;5012298;28;20551;-54
2023/01/04 12:42:02;;;;;;;13.07;2.95;;;11.10;99.90;;;;;;4953521;28;20134;-52
2023/01/04 12:44:45;;;;;;;13.77;3.08;;;11.00;99.90;;;;;;4971208;28;20098;-50
2023/01/04 12:50:01;;;;;;;18.90;4.20;;;11.20;99.90;;;;;;4968548;28;20064;-53
2023/01/04 12:52:27;;;;;;;18.95;3.83;;;11.20;99.90;;;;;;4989025;28;20738;-53
2023/01/04 12:54:54;;;;;;;22.90;4.50;;;11.30;99.90;;;;;;4991819;28;20045;-51
2023/01/04 12:57:24;;;;;;;24.00;4.40;;;11.10;99.90;;;;;;4984238;28;20054;-50
2023/01/04 13:00:00;;;;;;;19.67;4.28;;;11.20;99.90;;;;;;4978763;28;20156;-52
2023/01/04 13:02:27;;;;;;;28.23;6.10;;;11.20;99.90;;;;;;4982375;28;20151;-51
2023/01/04 13:05:00;;;;;;;30.05;6.60;;;11.30;99.90;;;;;;5014554;28;20067;-50
2023/01/04 13:07:25;;;;;;;32.08;6.05;;;11.20;99.90;;;;;;5058117;28;20577;-52
2023/01/04 13:09:57;;;;;;;30.08;5.88;;;11.20;99.90;;;;;;5051504;28;20603;-51
2023/01/04 13:12:58;;;;;;;26.92;5.05;;;11.20;99.90;;;;;;5073388;27;20047;-50
2023/01/04 13:15:55;;;;;;;24.10;5.97;;;11.30;99.90;;;;;;5115792;27;20047;-51
2023/01/04 13:18:41;;;;;;;29.65;6.10;;;11.20;99.90;;;;;;5129456;27;20039;-51
2023/01/04 13:21:16;;;;;;;30.08;6.80;;;11.20;99.90;;;;;;5111087;27;20094;-54
2023/01/04 13:23:54;;;;;;;25.15;5.65;;;11.40;99.90;;;;;;5108659;27;20046;-52
2023/01/04 13:26:41;;;;;;;29.88;6.50;;;11.20;99.90;;;;;;5134546;27;20046;-49
2023/01/04 13:29:15;;;;;;;22.42;5.70;;;11.40;99.90;;;;;;5106982;27;20038;-50
2023/01/04 13:31:47;;;;;;;21.10;4.97;;;11.30;99.90;;;;;;5125645;27;20031;-51
2023/01/04 13:34:34;;;;;;;26.00;6.13;;;11.30;99.90;;;;;;5127877;27;20570;-51
2023/01/04 13:37:02;;;;;;;26.88;6.65;;;11.30;99.90;;;;;;5116802;27;20158;-52
2023/01/04 13:39:28;;;;;;;27.60;6.57;;;11.20;99.90;;;;;;5112985;27;20038;-54
2023/01/04 13:41:55;;;;;;;27.05;6.38;;;11.40;99.90;;;;;;5112997;27;20085;-49
2023/01/04 13:44:36;;;;;;;28.73;5.95;;;11.20;99.90;;;;;;5101813;27;20499;-51
2023/01/04 13:47:01;;;;;;;32.55;5.82;;;11.20;99.90;;;;;;5113630;27;20593;-50
2023/01/04 13:49:27;;;;;;;30.08;6.43;;;11.20;99.90;;;;;;5123426;27;20042;-50
2023/01/04 13:51:55;;;;;;;26.27;5.55;;;11.20;99.90;;;;;;5101326;27;20067;-49